Adelaide, South Australia

5:23 PM ACST on October 02, 2014 (GMT +0930)
West Beach | Change Station
CLOSE
Current Station
Personal Weather Station
Location: West Beach, SOUTH AUSTRALIA
Elevation: 26 ft
Nearby Weather Stations

Elev 26 ft 34.94 °S, 138.51 °E | Updated 3 minutes ago

Partly Cloudy
Partly Cloudy
64.4 °F
Feels Like 64.4 °F
N
3.1
Wind Variable Wind from SSW
Gusts 7.6 mph

Today
High -- | Low -- °F
--% Chance of Precip.
Yesterday
High -- | Low -- °F
Precip. -- in
5:51 AM 6:19 PM
First Quarter, 56% visible
Pressure 30.24 in
Visibility 6.2 miles
Clouds Few 4100 ft
Dew Point 52 °F
Humidity 65%
Rainfall 0.00 in
Snow Depth Not available.
UV 1 out of 12
Pollen Not available.
Air Quality Not available.
Flu Activity Not available.
METAR YPAD 020730Z 22015KT 9999 FEW041 16/10 Q1024 FM0900 12006KT CAVOK

More Conditions Fewer Conditions

Pressure 30.24 in
Visibility 6.2 miles
Clouds Few 4100 ft
Dew Point 52 °F
Humidity 65%
Rainfall 0.00 in
Snow Depth Not available.
UV 1 out of 12
Pollen Not available.
Air Quality Not available.
Flu Activity Not available.
METAR YPAD 020730Z 22015KT 9999 FEW041 16/10 Q1024 FM0900 12006KT CAVOK

More Conditions Fewer Conditions

10-Day Weather Forecast

Almanac

Astronomy

Oct. 02, 2014 Rise Set
Actual Time 5:51 AM ACST 6:19 PM ACST
Civil Twilight 5:26 AM ACST 6:44 PM ACST
Nautical Twilight 4:56 AM ACST 7:14 PM ACST
Astronomical Twilight 4:26 AM ACST 7:45 PM ACST
Moon 11:34 AM ACST 12:53 AM ACST
Length of Visible Light 13h 18m
Length of Day
12h 27m
Tomorrow will be 2m 11s longer.
First Quarter, 56% of the Moon is Illuminated
Today
First Quarter
Oct 8
Full
Oct 15
Last Quarter
Oct 23
New
Oct 30
First Quarter

Yesterday's Extremes

Country Highs Country Lows

Community

WunderPhotos

Upload Photos

1,758,198 photos uploaded!

WunderBlogs® & News

By Dr. Jeff Masters
Director of Meteorology, Weather Underground
By Kari Strenfel
Meteorologist, Weather Underground
By Christopher C. Burt
Weather Historian, Weather Underground
October 2, 2014
October 2, 2014
October 2, 2014

Nearby

Snow Depth

Not available.

Earthquake Activity

City Distance Mag. Time & Date
No recent earthquake activity has been reported nearby.
Minimum magnitude displayed is 2.5.

Coastal Water Temperatures

Place Temperature
No Stations Reporting

Nearby Weather Stations